createdAt,value
2023-03-05T00:01:15.240Z,99.90
2023-03-05T00:03:42.751Z,99.90
2023-03-05T00:06:10.655Z,99.90
2023-03-05T00:08:38.495Z,99.90
2023-03-05T00:11:08.689Z,99.90
2023-03-05T00:13:36.610Z,99.90
2023-03-05T00:16:10.069Z,99.90
2023-03-05T00:18:37.754Z,99.90
2023-03-05T00:21:05.930Z,99.90
2023-03-05T00:23:33.292Z,99.90
2023-03-05T00:26:05.492Z,99.90
2023-03-05T00:28:32.711Z,99.90
2023-03-05T00:31:01.807Z,99.90
2023-03-05T00:33:29.118Z,99.90
2023-03-05T00:35:56.200Z,99.90
2023-03-05T00:38:23.488Z,99.90
2023-03-05T00:40:51.367Z,99.90
2023-03-05T00:43:18.360Z,99.90
2023-03-05T00:45:45.568Z,99.90
2023-03-05T00:48:13.039Z,99.90
2023-03-05T00:50:40.085Z,99.90
2023-03-05T00:53:07.370Z,99.90
2023-03-05T00:55:36.222Z,99.90
2023-03-05T00:58:04.230Z,99.90
2023-03-05T01:00:31.448Z,99.90
2023-03-05T01:02:58.725Z,99.90
2023-03-05T01:06:25.310Z,99.90
2023-03-05T01:08:52.344Z,99.90
2023-03-05T01:11:19.465Z,99.90
2023-03-05T01:13:46.948Z,99.90
2023-03-05T01:16:14.952Z,99.90
2023-03-05T01:18:42.311Z,99.90
2023-03-05T01:21:09.681Z,99.90
2023-03-05T01:23:38.172Z,99.90
2023-03-05T01:26:06.805Z,99.90
2023-03-05T01:28:34.436Z,99.90
2023-03-05T01:31:01.779Z,99.90
2023-03-05T01:33:29.247Z,99.90
2023-03-05T01:35:56.288Z,99.90
2023-03-05T01:38:23.368Z,99.90
2023-03-05T01:40:50.695Z,99.90
2023-03-05T01:43:30.263Z,99.90
2023-03-05T01:46:23.621Z,99.90
2023-03-05T01:49:09.213Z,99.90
2023-03-05T01:51:42.140Z,99.90
2023-03-05T01:54:11.135Z,99.90
2023-03-05T01:56:40.894Z,99.90
2023-03-05T01:59:08.786Z,99.90
2023-03-05T02:01:43.109Z,99.90
2023-03-05T02:04:15.207Z,99.90
2023-03-05T02:06:44.187Z,99.90
2023-03-05T02:09:12.057Z,99.90
2023-03-05T02:11:40.202Z,99.90
2023-03-05T02:14:10.415Z,99.90
2023-03-05T02:16:39.220Z,99.90
2023-03-05T02:19:08.758Z,99.90
2023-03-05T02:21:47.901Z,99.90
2023-03-05T02:24:18.000Z,99.90
2023-03-05T02:26:47.006Z,99.90
2023-03-05T02:29:19.965Z,99.90
2023-03-05T02:31:47.354Z,99.90
2023-03-05T02:34:14.760Z,99.90
2023-03-05T02:36:42.193Z,99.90
2023-03-05T02:39:10.362Z,99.90
2023-03-05T02:41:37.853Z,99.90
2023-03-05T02:47:59.188Z,99.90
2023-03-05T02:50:36.061Z,99.90
2023-03-05T02:53:19.164Z,99.90
2023-03-05T02:55:56.283Z,99.90
2023-03-05T02:58:29.453Z,99.90
2023-03-05T03:00:56.786Z,99.90
2023-03-05T03:03:36.598Z,99.90
2023-03-05T03:09:22.042Z,99.90
2023-03-05T03:14:46.622Z,99.90
2023-03-05T03:20:18.483Z,99.90
2023-03-05T03:22:57.675Z,99.90
2023-03-05T03:25:39.982Z,99.90
2023-03-05T03:28:16.306Z,99.90
2023-03-05T03:30:47.146Z,99.90
2023-03-05T03:33:14.197Z,99.90
2023-03-05T03:35:54.587Z,99.90
2023-03-05T03:38:34.127Z,99.90
2023-03-05T03:41:01.741Z,99.90
2023-03-05T03:43:38.563Z,99.90
2023-03-05T03:46:14.558Z,99.90
2023-03-05T03:49:03.435Z,99.90
2023-03-05T03:54:37.263Z,99.90
2023-03-05T03:57:10.028Z,99.90
2023-03-05T03:59:40.133Z,99.90
2023-03-05T04:02:13.214Z,99.90
2023-03-05T04:04:41.644Z,99.90
2023-03-05T04:07:29.725Z,99.90
2023-03-05T04:10:12.835Z,99.90
2023-03-05T04:12:52.245Z,99.90
2023-03-05T04:15:22.346Z,99.90
2023-03-05T04:18:16.667Z,99.90
2023-03-05T04:21:18.258Z,99.90
2023-03-05T04:24:06.960Z,99.90
2023-03-05T04:29:49.872Z,99.90
2023-03-05T04:32:23.657Z,99.90
2023-03-05T04:34:54.020Z,99.90
2023-03-05T04:37:33.508Z,99.90
2023-03-05T04:40:17.333Z,99.90
2023-03-05T04:42:50.302Z,99.90
2023-03-05T04:45:17.486Z,99.90
2023-03-05T04:47:47.568Z,99.90
2023-03-05T04:50:15.217Z,99.90
2023-03-05T04:53:25.661Z,99.90
2023-03-05T04:55:54.859Z,99.90
2023-03-05T04:58:28.609Z,99.90
2023-03-05T05:01:00.229Z,99.90
2023-03-05T05:03:40.372Z,99.90
2023-03-05T05:06:07.473Z,99.90
2023-03-05T05:08:34.722Z,99.90
2023-03-05T05:11:08.166Z,99.90
2023-03-05T05:13:38.613Z,99.90
2023-03-05T05:16:10.026Z,99.90
2023-03-05T05:18:37.924Z,99.90
2023-03-05T05:21:13.783Z,99.90
2023-03-05T05:23:41.402Z,99.90
2023-03-05T05:26:14.435Z,99.90
2023-03-05T05:28:43.863Z,99.90
2023-03-05T05:31:13.764Z,99.90
2023-03-05T05:33:43.991Z,99.90
2023-03-05T05:36:16.785Z,99.90
2023-03-05T05:38:53.484Z,99.90
2023-03-05T05:44:31.804Z,99.90
2023-03-05T05:46:59.262Z,99.90
2023-03-05T05:49:40.037Z,99.90
2023-03-05T05:52:13.298Z,99.90
2023-03-05T05:54:49.974Z,99.90
2023-03-05T05:57:23.081Z,99.90
2023-03-05T05:59:50.624Z,99.90
2023-03-05T06:02:21.070Z,99.90
2023-03-05T06:04:48.184Z,99.90
2023-03-05T06:07:15.221Z,99.90
2023-03-05T06:09:42.348Z,99.90
2023-03-05T06:12:09.449Z,99.90
2023-03-05T06:14:54.854Z,99.90
2023-03-05T06:17:31.033Z,99.90
2023-03-05T06:20:05.639Z,99.90
2023-03-05T06:22:36.164Z,99.90
2023-03-05T06:25:03.944Z,99.90
2023-03-05T06:27:35.576Z,99.90
2023-03-05T06:30:03.005Z,99.90
2023-03-05T06:32:36.936Z,99.90
2023-03-05T06:35:04.423Z,99.90
2023-03-05T06:37:31.684Z,99.90
2023-03-05T06:39:59.190Z,99.90
2023-03-05T06:42:29.387Z,99.90
2023-03-05T06:44:56.583Z,99.90
2023-03-05T06:47:26.983Z,99.90
2023-03-05T06:49:57.010Z,99.90
2023-03-05T06:52:27.326Z,99.90
2023-03-05T06:54:56.001Z,99.90
2023-03-05T06:57:26.287Z,99.90
2023-03-05T06:59:53.462Z,99.90
2023-03-05T07:02:20.774Z,99.90
2023-03-05T07:04:59.943Z,99.90
2023-03-05T07:07:34.023Z,99.90
2023-03-05T07:10:11.773Z,99.90
2023-03-05T07:12:57.797Z,99.90
2023-03-05T07:15:25.228Z,99.90
2023-03-05T07:18:00.956Z,99.90
2023-03-05T07:23:29.149Z,99.90
2023-03-05T07:25:56.576Z,99.90
2023-03-05T07:28:33.811Z,99.90
2023-03-05T07:31:15.749Z,99.90
2023-03-05T07:33:43.476Z,99.90
2023-03-05T07:36:11.463Z,99.90
2023-03-05T07:38:57.154Z,99.90
2023-03-05T07:42:00.530Z,99.90
2023-03-05T07:44:51.852Z,99.90
2023-03-05T07:47:37.884Z,99.90
2023-03-05T07:50:12.139Z,99.90
2023-03-05T07:52:40.120Z,99.90
2023-03-05T07:55:11.161Z,99.90
2023-03-05T07:57:53.785Z,99.90
2023-03-05T08:00:23.978Z,99.90
2023-03-05T08:02:57.249Z,99.90
2023-03-05T08:05:24.286Z,99.90
2023-03-05T08:08:04.947Z,99.90
2023-03-05T08:10:32.500Z,99.90
2023-03-05T08:16:25.983Z,99.90
2023-03-05T08:18:57.754Z,99.90
2023-03-05T08:21:30.948Z,99.90
2023-03-05T08:24:22.990Z,99.90
2023-03-05T08:26:50.204Z,99.90
2023-03-05T08:29:17.159Z,99.90
2023-03-05T08:31:47.306Z,99.90
2023-03-05T08:34:15.004Z,99.90
2023-03-05T08:36:42.649Z,99.90
2023-03-05T08:39:10.731Z,99.90
2023-03-05T08:41:38.435Z,99.90
2023-03-05T08:44:05.964Z,99.90
2023-03-05T08:46:34.062Z,99.90
2023-03-05T08:49:02.156Z,99.90
2023-03-05T08:51:29.208Z,99.90
2023-03-05T08:53:58.613Z,99.90
2023-03-05T08:56:27.969Z,99.90
2023-03-05T08:58:54.990Z,99.90
2023-03-05T09:01:24.064Z,99.90
2023-03-05T09:03:51.214Z,97.80
2023-03-05T09:06:18.418Z,92.40
2023-03-05T09:08:45.916Z,93.10
2023-03-05T09:11:14.319Z,94.40
2023-03-05T09:13:42.071Z,96.90
2023-03-05T09:16:12.772Z,99.90
2023-03-05T09:18:40.750Z,99.90
2023-03-05T09:21:12.480Z,99.90
2023-03-05T09:23:40.542Z,99.90
2023-03-05T09:26:16.084Z,99.90
2023-03-05T09:28:43.141Z,99.90
2023-03-05T09:31:10.226Z,99.90
2023-03-05T09:33:38.644Z,99.90
2023-03-05T09:36:16.260Z,99.90
2023-03-05T09:38:43.248Z,99.90
2023-03-05T09:41:17.860Z,99.90
2023-03-05T09:44:05.516Z,99.90
2023-03-05T09:46:46.708Z,99.90
2023-03-05T09:49:29.092Z,99.90
2023-03-05T09:52:03.426Z,99.90
2023-03-05T09:54:38.825Z,99.90
2023-03-05T09:57:14.504Z,99.90
2023-03-05T09:59:50.533Z,99.90
2023-03-05T10:02:46.597Z,99.90
2023-03-05T10:05:43.670Z,99.90
2023-03-05T10:08:12.084Z,99.90
2023-03-05T10:10:46.855Z,99.90
2023-03-05T10:13:32.659Z,99.90
2023-03-05T10:16:19.289Z,99.90
2023-03-05T10:19:08.446Z,99.90
2023-03-05T10:22:05.220Z,99.90
2023-03-05T10:24:54.602Z,99.90
2023-03-05T10:27:31.829Z,99.90
2023-03-05T10:30:05.034Z,99.60
2023-03-05T10:33:11.257Z,99.90
2023-03-05T10:35:44.773Z,99.90
2023-03-05T10:38:23.933Z,98.90
2023-03-05T10:40:56.121Z,96.70
2023-03-05T10:43:41.829Z,91.60
2023-03-05T10:46:19.021Z,91.70
2023-03-05T10:49:06.896Z,93.70
2023-03-05T10:51:36.301Z,94.30
2023-03-05T10:54:29.140Z,97.30
2023-03-05T10:57:19.729Z,97.20
2023-03-05T10:59:51.551Z,97.70
2023-03-05T11:02:20.263Z,98.70
2023-03-05T11:04:48.764Z,99.20
2023-03-05T11:07:16.006Z,99.10
2023-03-05T11:10:04.363Z,98.70
2023-03-05T11:12:38.193Z,99.80
2023-03-05T11:15:14.501Z,99.90
2023-03-05T11:17:48.364Z,99.90
2023-03-05T11:20:27.871Z,99.90
2023-03-05T11:23:16.625Z,99.90
2023-03-05T11:26:04.201Z,99.90
2023-03-05T11:28:38.300Z,99.90
2023-03-05T11:31:24.944Z,99.90
2023-03-05T11:34:00.859Z,99.90
2023-03-05T11:36:43.571Z,99.90
2023-03-05T11:39:15.140Z,99.90
2023-03-05T11:42:17.395Z,99.90
2023-03-05T11:44:50.043Z,99.20
2023-03-05T11:47:32.765Z,98.20
2023-03-05T11:50:06.266Z,98.40
2023-03-05T11:52:47.024Z,97.50
2023-03-05T11:55:20.646Z,97.40
2023-03-05T11:58:15.304Z,99.60
2023-03-05T12:00:45.864Z,99.50
2023-03-05T12:03:17.532Z,99.40
2023-03-05T12:05:51.688Z,95.50
2023-03-05T12:08:29.696Z,95.20
2023-03-05T12:11:09.900Z,93.30
2023-03-05T12:13:46.726Z,95.50
2023-03-05T12:16:39.723Z,97.50
2023-03-05T12:19:25.128Z,95.20
2023-03-05T12:21:53.838Z,96.30
2023-03-05T12:24:26.714Z,96.50
2023-03-05T12:27:04.913Z,95.70
2023-03-05T12:29:40.088Z,95.30
2023-03-05T12:32:35.622Z,96.50
2023-03-05T12:35:06.524Z,95.50
2023-03-05T12:37:33.506Z,95.10
2023-03-05T12:40:10.953Z,94.50
2023-03-05T12:42:38.331Z,94.30
2023-03-05T12:45:19.282Z,93.70
2023-03-05T12:48:12.280Z,95.70
2023-03-05T12:50:39.670Z,94.90
2023-03-05T12:53:20.910Z,97.20
2023-03-05T12:55:59.354Z,98.20
2023-03-05T12:58:45.439Z,98.70
2023-03-05T13:01:12.615Z,96.10
2023-03-05T13:03:50.674Z,96.00
2023-03-05T13:06:37.662Z,95.50
2023-03-05T13:09:18.931Z,95.50
2023-03-05T13:11:52.065Z,95.30
2023-03-05T13:14:30.003Z,95.30
2023-03-05T13:16:57.482Z,96.70
2023-03-05T13:19:25.000Z,96.40
2023-03-05T13:22:03.570Z,96.60
2023-03-05T13:24:31.692Z,95.20
2023-03-05T13:26:58.953Z,95.60
2023-03-05T13:29:28.934Z,95.80
2023-03-05T13:31:57.522Z,95.20
2023-03-05T13:34:34.765Z,96.40
2023-03-05T13:37:24.129Z,94.80
2023-03-05T13:40:02.382Z,95.10
2023-03-05T13:42:35.044Z,93.40
2023-03-05T13:45:08.441Z,94.10
2023-03-05T13:47:37.019Z,94.30
2023-03-05T13:50:09.245Z,93.00
2023-03-05T13:52:38.609Z,94.20
2023-03-05T13:55:14.721Z,92.10
2023-03-05T13:57:53.840Z,92.70
2023-03-05T14:00:35.133Z,93.70
2023-03-05T14:03:28.234Z,93.30
2023-03-05T14:05:55.674Z,91.70
2023-03-05T14:08:30.592Z,92.20
2023-03-05T14:11:12.347Z,91.40
2023-03-05T14:13:40.384Z,92.90
2023-03-05T14:16:11.892Z,93.50
2023-03-05T14:18:40.092Z,93.40
2023-03-05T14:21:10.326Z,92.30
2023-03-05T14:23:47.735Z,91.40
2023-03-05T14:26:31.259Z,91.20
2023-03-05T14:29:15.639Z,91.10
2023-03-05T14:32:06.243Z,91.10
2023-03-05T14:34:40.436Z,91.90
2023-03-05T14:37:30.449Z,92.40
2023-03-05T14:40:01.243Z,91.50
2023-03-05T14:42:53.857Z,92.10
2023-03-05T14:45:25.465Z,91.20
2023-03-05T14:47:54.673Z,92.00
2023-03-05T14:50:28.981Z,91.40
2023-03-05T14:53:04.207Z,91.50
2023-03-05T14:55:33.200Z,92.40
2023-03-05T14:58:11.172Z,91.30
2023-03-05T15:00:38.206Z,92.00
2023-03-05T15:03:05.976Z,92.60
2023-03-05T15:05:33.825Z,93.10
2023-03-05T15:08:01.334Z,93.70
2023-03-05T15:10:28.393Z,93.60
2023-03-05T15:12:55.549Z,93.50
2023-03-05T15:15:22.976Z,93.10
2023-03-05T15:17:57.699Z,94.70
2023-03-05T15:20:27.728Z,95.70
2023-03-05T15:22:55.712Z,96.30
2023-03-05T15:25:25.934Z,95.70
2023-03-05T15:27:53.428Z,95.70
2023-03-05T15:30:35.050Z,96.80
2023-03-05T15:33:05.203Z,96.00
2023-03-05T15:35:32.888Z,96.10
2023-03-05T15:38:00.472Z,95.50
2023-03-05T15:40:29.207Z,96.00
2023-03-05T15:42:57.126Z,96.00
2023-03-05T15:45:25.043Z,96.20
2023-03-05T15:47:53.617Z,96.60
2023-03-05T15:50:21.733Z,96.60
2023-03-05T15:52:49.703Z,97.10
2023-03-05T15:55:18.397Z,96.90
2023-03-05T15:57:47.812Z,97.90
2023-03-05T16:00:17.320Z,97.20
2023-03-05T16:02:44.379Z,97.30
2023-03-05T16:05:11.660Z,97.60
2023-03-05T16:07:42.309Z,97.70
2023-03-05T16:10:17.858Z,97.80
2023-03-05T16:12:46.155Z,97.90
2023-03-05T16:15:18.097Z,98.20
2023-03-05T16:17:49.870Z,98.10
2023-03-05T16:20:18.024Z,98.30
2023-03-05T16:22:45.618Z,98.50
2023-03-05T16:25:13.369Z,98.40
2023-03-05T16:27:40.934Z,98.10
2023-03-05T16:30:09.768Z,98.40
2023-03-05T16:32:39.184Z,98.60
2023-03-05T16:35:06.828Z,98.70
2023-03-05T16:37:33.942Z,98.70
2023-03-05T16:40:01.296Z,98.60
2023-03-05T16:42:28.343Z,98.40
2023-03-05T16:44:56.061Z,98.70
2023-03-05T16:47:23.484Z,98.90
2023-03-05T16:49:50.506Z,99.00
2023-03-05T16:52:19.699Z,99.20
2023-03-05T16:54:48.604Z,99.50
2023-03-05T16:57:16.948Z,99.70
2023-03-05T16:59:45.001Z,99.70
2023-03-05T17:02:15.461Z,99.80
2023-03-05T17:04:42.898Z,99.90
2023-03-05T17:07:10.293Z,99.90
2023-03-05T17:09:37.460Z,99.90
2023-03-05T17:12:05.600Z,99.90
2023-03-05T17:14:32.684Z,99.90
2023-03-05T17:17:01.370Z,99.90
2023-03-05T17:19:29.002Z,99.90
2023-03-05T17:21:56.258Z,99.90
2023-03-05T17:24:23.738Z,99.90
2023-03-05T17:26:51.813Z,99.90
2023-03-05T17:29:20.047Z,99.90
2023-03-05T17:31:53.725Z,99.90
2023-03-05T17:34:33.262Z,99.90
2023-03-05T17:37:03.429Z,99.90
2023-03-05T17:39:31.223Z,99.90
2023-03-05T17:41:58.249Z,99.90
2023-03-05T17:45:59.918Z,99.90
2023-03-05T17:48:28.227Z,99.90
2023-03-05T17:50:55.390Z,99.90
2023-03-05T17:53:23.950Z,99.90
2023-03-05T17:55:51.468Z,99.90
2023-03-05T17:58:18.508Z,99.90
2023-03-05T18:00:46.270Z,99.90
2023-03-05T18:03:13.450Z,99.90
2023-03-05T18:05:41.198Z,99.90
2023-03-05T18:08:08.584Z,99.90
2023-03-05T18:10:36.107Z,99.90
2023-03-05T18:13:03.249Z,99.90
2023-03-05T18:15:31.162Z,99.90
2023-03-05T18:17:58.793Z,99.90
2023-03-05T18:20:33.124Z,99.90
2023-03-05T18:23:01.550Z,99.90
2023-03-05T18:25:32.119Z,99.90
2023-03-05T18:28:00.972Z,99.90
2023-03-05T18:30:29.311Z,99.90
2023-03-05T18:32:56.472Z,99.90
2023-03-05T18:35:23.746Z,99.90
2023-03-05T18:37:51.065Z,99.90
2023-03-05T18:40:23.101Z,99.90
2023-03-05T18:42:50.701Z,99.90
2023-03-05T18:45:20.698Z,99.90
2023-03-05T18:47:49.193Z,99.90
2023-03-05T18:50:18.744Z,99.90
2023-03-05T18:52:46.173Z,99.90
2023-03-05T18:55:16.640Z,99.90
2023-03-05T18:57:43.754Z,99.90
2023-03-05T19:00:14.320Z,99.90
2023-03-05T19:02:41.864Z,99.90
2023-03-05T19:05:09.432Z,99.90
2023-03-05T19:07:38.142Z,99.90
2023-03-05T19:10:10.103Z,99.90
2023-03-05T19:13:40.496Z,99.90
2023-03-05T19:16:26.788Z,99.90
2023-03-05T19:19:25.546Z,99.90
2023-03-05T19:21:55.283Z,99.90
2023-03-05T19:24:24.701Z,99.90
2023-03-05T19:26:55.577Z,99.90
2023-03-05T19:29:28.089Z,99.90
2023-03-05T19:31:55.287Z,99.90
2023-03-05T19:34:22.321Z,99.90
2023-03-05T19:36:49.508Z,99.90
2023-03-05T19:39:17.118Z,99.90
2023-03-05T19:41:44.174Z,99.90
2023-03-05T19:44:13.446Z,99.90
2023-03-05T19:46:41.970Z,99.90
2023-03-05T19:49:09.919Z,99.90
2023-03-05T19:51:37.555Z,99.90
2023-03-05T19:54:05.674Z,99.90
2023-03-05T19:56:32.971Z,99.90
2023-03-05T19:59:00.254Z,99.90
2023-03-05T20:01:28.331Z,99.90
2023-03-05T20:03:58.033Z,99.90
2023-03-05T20:06:26.353Z,99.90
2023-03-05T20:08:54.285Z,99.90
2023-03-05T20:11:22.332Z,99.90
2023-03-05T20:13:50.598Z,99.90
2023-03-05T20:16:25.741Z,99.90
2023-03-05T20:18:55.025Z,99.90
2023-03-05T20:21:31.143Z,99.90
2023-03-05T20:24:02.348Z,99.90
2023-03-05T20:26:30.296Z,99.90
2023-03-05T20:28:58.000Z,99.90
2023-03-05T20:31:27.282Z,99.90
2023-03-05T20:33:56.817Z,99.90
2023-03-05T20:36:24.498Z,99.90
2023-03-05T20:38:51.580Z,99.90
2023-03-05T20:41:20.949Z,99.90
2023-03-05T20:43:50.138Z,99.90
2023-03-05T20:46:28.894Z,99.90
2023-03-05T20:49:00.984Z,99.90
2023-03-05T20:51:29.650Z,99.90
2023-03-05T20:53:59.843Z,99.90
2023-03-05T20:56:28.233Z,99.90
2023-03-05T20:58:58.544Z,99.90
2023-03-05T21:01:27.173Z,99.90
2023-03-05T21:03:57.120Z,99.90
2023-03-05T21:06:25.787Z,99.90
2023-03-05T21:08:53.400Z,99.90
2023-03-05T21:11:20.856Z,99.90
2023-03-05T21:13:48.458Z,99.90
2023-03-05T21:16:22.872Z,99.90
2023-03-05T21:18:51.397Z,99.90
2023-03-05T21:21:18.886Z,99.90
2023-03-05T21:23:47.590Z,99.90
2023-03-05T21:26:15.467Z,99.90
2023-03-05T21:28:42.933Z,99.90
2023-03-05T21:31:14.475Z,99.90
2023-03-05T21:33:42.725Z,99.90
2023-03-05T21:36:10.556Z,99.90
2023-03-05T21:38:37.635Z,99.90
2023-03-05T21:41:05.291Z,99.90
2023-03-05T21:43:33.029Z,99.90
2023-03-05T21:46:03.237Z,99.90
2023-03-05T21:48:31.221Z,99.90
2023-03-05T21:50:58.670Z,99.90
2023-03-05T21:53:26.203Z,99.90
2023-03-05T21:56:21.238Z,99.90
2023-03-05T21:58:49.391Z,99.90
2023-03-05T22:01:19.826Z,99.90
2023-03-05T22:03:47.946Z,99.90
2023-03-05T22:06:16.871Z,99.90
2023-03-05T22:08:44.044Z,99.90
2023-03-05T22:11:13.662Z,99.90
2023-03-05T22:13:40.749Z,99.90
2023-03-05T22:16:09.803Z,99.90
2023-03-05T22:18:37.755Z,99.90
2023-03-05T22:21:05.691Z,99.90
2023-03-05T22:23:37.342Z,99.90
2023-03-05T22:26:08.136Z,99.90
2023-03-05T22:28:36.319Z,99.90
2023-03-05T22:31:03.630Z,99.90
2023-03-05T22:33:31.894Z,99.90
2023-03-05T22:35:59.346Z,99.90
2023-03-05T22:38:26.563Z,99.90
2023-03-05T22:40:54.245Z,99.90
2023-03-05T22:43:21.775Z,99.90
2023-03-05T22:45:49.243Z,99.90
2023-03-05T22:48:16.924Z,99.90
2023-03-05T22:50:44.745Z,99.90
2023-03-05T22:53:13.148Z,99.90
2023-03-05T22:55:42.580Z,99.90
2023-03-05T22:58:10.129Z,99.90
2023-03-05T23:00:37.802Z,99.90
2023-03-05T23:03:06.667Z,99.90
2023-03-05T23:05:34.962Z,99.90
2023-03-05T23:08:02.195Z,99.90
2023-03-05T23:10:29.928Z,99.90
2023-03-05T23:12:59.396Z,99.90
2023-03-05T23:15:30.892Z,99.90
2023-03-05T23:17:58.288Z,99.90
2023-03-05T23:20:28.522Z,99.90
2023-03-05T23:22:56.420Z,99.90
2023-03-05T23:25:25.712Z,99.90
2023-03-05T23:27:53.847Z,99.90
2023-03-05T23:30:22.904Z,99.90
2023-03-05T23:32:59.647Z,99.90
2023-03-05T23:35:34.639Z,99.90
2023-03-05T23:38:03.808Z,99.90
2023-03-05T23:40:51.044Z,99.90
2023-03-05T23:43:20.167Z,99.90
2023-03-05T23:45:49.503Z,99.90
2023-03-05T23:48:18.014Z,99.90
2023-03-05T23:50:47.615Z,99.90
2023-03-05T23:53:20.839Z,99.90
2023-03-05T23:55:49.438Z,99.90
2023-03-05T23:58:17.677Z,99.90
